Time,TemperatureF,DewpointF,PressureIn,WindDirection,WindDirectionDegrees,WindSpeedMPH,WindSpeedGustMPH,Humidity,HourlyPrecipIn,Conditions,Clouds,dailyrainin,SoftwareType,DateUTC
2013-01-08 01:00:00,18.0,16.0,-100.00,WNW,303,10.0,20.0,91,-99.99,,,-99.99,,2013-01-08 08:00:00,
2013-01-08 01:32:00,18.0,16.0,-100.00,WNW,303,10.0,20.0,91,-99.99,,,-99.99,,2013-01-08 08:32:00,
2013-01-08 01:42:00,18.0,16.0,-100.00,WNW,303,10.0,20.0,91,-99.99,,,-99.99,,2013-01-08 08:42:00,
2013-01-08 01:52:00,18.0,16.0,-100.00,WNW,303,10.0,20.0,91,-99.99,,,-99.99,,2013-01-08 08:52:00,
2013-01-08 04:00:00,17.0,15.0,-100.00,NW,304,13.0,25.0,91,-99.99,,,-99.99,,2013-01-08 11:00:00,
2013-01-08 04:33:00,17.0,15.0,-100.00,NW,304,13.0,25.0,91,-99.99,,,-99.99,,2013-01-08 11:33:00,
2013-01-08 04:42:00,17.0,15.0,-100.00,NW,304,13.0,25.0,91,-99.99,,,-99.99,,2013-01-08 11:42:00,
2013-01-08 04:53:00,17.0,15.0,-100.00,NW,304,13.0,25.0,91,-99.99,,,-99.99,,2013-01-08 11:53:00,
2013-01-08 05:00:00,16.0,14.0,-100.00,NW,307,15.0,26.0,91,-99.99,,,-99.99,,2013-01-08 12:00:00,
2013-01-08 05:33:00,16.0,14.0,-100.00,NW,307,15.0,26.0,91,-99.99,,,-99.99,,2013-01-08 12:33:00,
2013-01-08 05:43:00,16.0,14.0,-100.00,NW,307,15.0,26.0,91,-99.99,,,-99.99,,2013-01-08 12:43:00,
2013-01-08 05:53:00,16.0,14.0,-100.00,NW,307,15.0,26.0,91,-99.99,,,-99.99,,2013-01-08 12:53:00,
2013-01-08 06:00:00,15.0,13.0,-100.00,NW,304,16.0,27.0,90,-99.99,,,-99.99,,2013-01-08 13:00:00,
2013-01-08 06:33:00,15.0,13.0,-100.00,NW,304,16.0,27.0,90,-99.99,,,-99.99,,2013-01-08 13:33:00,
2013-01-08 06:43:00,15.0,13.0,-100.00,NW,304,16.0,27.0,90,-99.99,,,-99.99,,2013-01-08 13:43:00,
2013-01-08 06:53:00,15.0,13.0,-100.00,NW,304,16.0,27.0,90,-99.99,,,-99.99,,2013-01-08 13:53:00,
2013-01-08 07:00:00,16.0,13.0,-100.00,WNW,293,12.0,24.0,91,-99.99,,,-99.99,,2013-01-08 14:00:00,
2013-01-08 07:33:00,16.0,13.0,-100.00,WNW,293,12.0,24.0,91,-99.99,,,-99.99,,2013-01-08 14:33:00,
2013-01-08 07:43:00,16.0,13.0,-100.00,WNW,293,12.0,24.0,91,-99.99,,,-99.99,,2013-01-08 14:43:00,
2013-01-08 07:53:00,16.0,13.0,-100.00,WNW,293,12.0,24.0,91,-99.99,,,-99.99,,2013-01-08 14:53:00,
2013-01-08 08:00:00,16.0,14.0,-100.00,WNW,302,8.0,20.0,91,-99.99,,,-99.99,,2013-01-08 15:00:00,
2013-01-08 08:33:00,16.0,14.0,-100.00,WNW,302,8.0,20.0,91,-99.99,,,-99.99,,2013-01-08 15:33:00,
2013-01-08 08:43:00,16.0,14.0,-100.00,WNW,302,8.0,20.0,91,-99.99,,,-99.99,,2013-01-08 15:43:00,
2013-01-08 08:53:00,16.0,14.0,-100.00,WNW,302,8.0,20.0,91,-99.99,,,-99.99,,2013-01-08 15:53:00,
2013-01-08 09:00:00,16.0,14.0,-100.00,WNW,301,6.0,15.0,91,-99.99,,,-99.99,,2013-01-08 16:00:00,
2013-01-08 09:34:00,16.0,14.0,-100.00,WNW,301,6.0,15.0,91,-99.99,,,-99.99,,2013-01-08 16:34:00,
2013-01-08 09:43:00,16.0,14.0,-100.00,WNW,301,6.0,15.0,91,-99.99,,,-99.99,,2013-01-08 16:43:00,
2013-01-08 09:53:00,16.0,14.0,-100.00,WNW,301,6.0,15.0,91,-99.99,,,-99.99,,2013-01-08 16:53:00,
2013-01-08 10:00:00,17.0,15.0,-100.00,NW,312,7.0,15.0,91,-99.99,,,-99.99,,2013-01-08 17:00:00,
2013-01-08 10:34:00,17.0,15.0,-100.00,NW,312,7.0,15.0,91,-99.99,,,-99.99,,2013-01-08 17:34:00,
2013-01-08 10:43:00,17.0,15.0,-100.00,NW,312,7.0,15.0,91,-99.99,,,-99.99,,2013-01-08 17:43:00,
2013-01-08 10:53:00,17.0,15.0,-100.00,NW,312,7.0,15.0,91,-99.99,,,-99.99,,2013-01-08 17:53:00,
2013-01-08 11:00:00,18.0,16.0,-100.00,NW,314,7.0,15.0,91,-99.99,,,-99.99,,2013-01-08 18:00:00,
2013-01-08 11:33:00,18.0,16.0,-100.00,NW,314,7.0,15.0,91,-99.99,,,-99.99,,2013-01-08 18:33:00,
2013-01-08 11:43:00,18.0,16.0,-100.00,NW,314,7.0,15.0,91,-99.99,,,-99.99,,2013-01-08 18:43:00,
2013-01-08 11:53:00,18.0,16.0,-100.00,NW,314,7.0,15.0,91,-99.99,,,-99.99,,2013-01-08 18:53:00,
2013-01-08 12:00:00,19.0,17.0,-100.00,NW,323,5.0,15.0,91,-99.99,,,-99.99,,2013-01-08 19:00:00,
2013-01-08 12:33:00,19.0,17.0,-100.00,NW,323,5.0,15.0,91,-99.99,,,-99.99,,2013-01-08 19:33:00,
2013-01-08 12:43:00,19.0,17.0,-100.00,NW,323,5.0,15.0,91,-99.99,,,-99.99,,2013-01-08 19:43:00,
2013-01-08 12:53:00,19.0,17.0,-100.00,NW,323,5.0,15.0,91,-99.99,,,-99.99,,2013-01-08 19:53:00,
2013-01-08 13:00:00,20.0,18.0,-100.00,NW,323,5.0,10.0,91,-99.99,,,-99.99,,2013-01-08 20:00:00,
2013-01-08 13:43:00,20.0,18.0,-100.00,NW,323,5.0,10.0,91,-99.99,,,-99.99,,2013-01-08 20:43:00,
2013-01-08 13:53:00,20.0,18.0,-100.00,NW,323,5.0,10.0,91,-99.99,,,-99.99,,2013-01-08 20:53:00,
2013-01-08 14:00:00,21.0,19.0,-100.00,NW,318,4.0,9.0,91,-99.99,,,-99.99,,2013-01-08 21:00:00,
2013-01-08 14:43:00,21.0,19.0,-100.00,NW,318,4.0,9.0,91,-99.99,,,-99.99,,2013-01-08 21:43:00,
2013-01-08 14:53:00,21.0,19.0,-100.00,NW,318,4.0,9.0,91,-99.99,,,-99.99,,2013-01-08 21:53:00,
2013-01-08 15:00:00,21.0,19.0,-100.00,NW,316,4.0,7.0,91,-99.99,,,-99.99,,2013-01-08 22:00:00,
2013-01-08 15:33:00,21.0,19.0,-100.00,NW,316,4.0,7.0,91,-99.99,,,-99.99,,2013-01-08 22:33:00,
2013-01-08 15:43:00,21.0,19.0,-100.00,NW,316,4.0,7.0,91,-99.99,,,-99.99,,2013-01-08 22:43:00,
2013-01-08 15:53:00,21.0,19.0,-100.00,NW,316,4.0,7.0,91,-99.99,,,-99.99,,2013-01-08 22:53:00,
2013-01-08 16:00:00,20.0,18.0,-100.00,NW,308,3.0,6.0,91,-99.99,,,-99.99,,2013-01-08 23:00:00,
2013-01-08 16:33:00,20.0,18.0,-100.00,NW,308,3.0,6.0,91,-99.99,,,-99.99,,2013-01-08 23:33:00,
2013-01-08 16:43:00,20.0,18.0,-100.00,NW,308,3.0,6.0,91,-99.99,,,-99.99,,2013-01-08 23:43:00,
2013-01-08 16:53:00,20.0,18.0,-100.00,NW,308,3.0,6.0,91,-99.99,,,-99.99,,2013-01-08 23:53:00,
2013-01-08 17:00:00,19.0,17.0,-100.00,NW,311,3.0,7.0,91,-99.99,,,-99.99,,2013-01-09 00:00:00,
2013-01-08 17:43:00,19.0,17.0,-100.00,NW,311,3.0,7.0,91,-99.99,,,-99.99,,2013-01-09 00:43:00,
2013-01-08 17:53:00,19.0,17.0,-100.00,NW,311,3.0,7.0,91,-99.99,,,-99.99,,2013-01-09 00:53:00,
2013-01-08 18:00:00,19.0,17.0,-100.00,NW,308,3.0,6.0,91,-99.99,,,-99.99,,2013-01-09 01:00:00,
2013-01-08 18:33:00,19.0,17.0,-100.00,NW,308,3.0,6.0,91,-99.99,,,-99.99,,2013-01-09 01:33:00,
2013-01-08 18:42:00,19.0,17.0,-100.00,NW,308,3.0,6.0,91,-99.99,,,-99.99,,2013-01-09 01:42:00,
2013-01-08 18:52:00,19.0,17.0,-100.00,NW,308,3.0,6.0,91,-99.99,,,-99.99,,2013-01-09 01:52:00,
2013-01-08 19:00:00,19.0,17.0,-100.00,NW,306,1.0,4.0,91,-99.99,,,-99.99,,2013-01-09 02:00:00,
2013-01-08 19:33:00,19.0,17.0,-100.00,NW,306,1.0,4.0,91,-99.99,,,-99.99,,2013-01-09 02:33:00,
2013-01-08 19:43:00,19.0,17.0,-100.00,NW,306,1.0,4.0,91,-99.99,,,-99.99,,2013-01-09 02:43:00,
2013-01-08 19:53:00,19.0,17.0,-100.00,NW,306,1.0,4.0,91,-99.99,,,-99.99,,2013-01-09 02:53:00,
2013-01-08 20:00:00,18.0,17.0,-100.00,North,-999,0.0,0.0,91,-99.99,,,-99.99,,2013-01-09 03:00:00,
2013-01-08 20:33:00,18.0,17.0,-100.00,North,-999,0.0,0.0,91,-99.99,,,-99.99,,2013-01-09 03:33:00,
2013-01-08 20:43:00,18.0,17.0,-100.00,North,-999,0.0,0.0,91,-99.99,,,-99.99,,2013-01-09 03:43:00,
2013-01-08 20:52:00,18.0,17.0,-100.00,North,-999,0.0,0.0,91,-99.99,,,-99.99,,2013-01-09 03:52:00,
2013-01-08 21:00:00,19.0,17.0,-100.00,North,-999,0.0,0.0,91,-99.99,,,-99.99,,2013-01-09 04:00:00,
2013-01-08 21:33:00,19.0,17.0,-100.00,North,-999,0.0,0.0,91,-99.99,,,-99.99,,2013-01-09 04:33:00,
2013-01-08 21:43:00,19.0,17.0,-100.00,North,-999,0.0,0.0,91,-99.99,,,-99.99,,2013-01-09 04:43:00,
2013-01-08 21:52:00,19.0,17.0,-100.00,North,-999,0.0,0.0,91,-99.99,,,-99.99,,2013-01-09 04:52:00,
2013-01-08 22:00:00,20.0,18.0,-100.00,North,-999,0.0,0.0,92,-99.99,,,-99.99,,2013-01-09 05:00:00,
2013-01-08 22:33:00,20.0,18.0,-100.00,North,-999,0.0,0.0,92,-99.99,,,-99.99,,2013-01-09 05:33:00,
2013-01-08 22:43:00,20.0,18.0,-100.00,North,-999,0.0,0.0,92,-99.99,,,-99.99,,2013-01-09 05:43:00,
2013-01-08 22:52:00,20.0,18.0,-100.00,North,-999,0.0,0.0,92,-99.99,,,-99.99,,2013-01-09 05:52:00,
2013-01-08 23:00:00,21.0,19.0,-100.00,North,-999,0.0,0.0,92,-99.99,,,-99.99,,2013-01-09 06:00:00,
2013-01-08 23:32:00,21.0,19.0,-100.00,North,-999,0.0,0.0,92,-99.99,,,-99.99,,2013-01-09 06:32:00,
2013-01-08 23:42:00,21.0,19.0,-100.00,North,-999,0.0,0.0,92,-99.99,,,-99.99,,2013-01-09 06:42:00,
2013-01-08 23:52:00,21.0,19.0,-100.00,North,-999,0.0,0.0,92,-99.99,,,-99.99,,2013-01-09 06:52:00,